createdAt,value
2019-02-17T00:00:37.532Z,15.10
2019-02-17T00:03:05.842Z,15.23
2019-02-17T00:05:34.194Z,15.55
2019-02-17T00:08:02.393Z,16.10
2019-02-17T00:10:30.622Z,16.25
2019-02-17T00:12:58.824Z,16.50
2019-02-17T00:15:27.042Z,15.95
2019-02-17T00:17:55.312Z,16.52
2019-02-17T00:20:23.524Z,16.17
2019-02-17T00:22:51.731Z,17.40
2019-02-17T00:25:20.481Z,17.23
2019-02-17T00:27:48.910Z,16.95
2019-02-17T00:30:17.479Z,16.10
2019-02-17T00:32:45.779Z,16.00
2019-02-17T00:35:14.037Z,16.13
2019-02-17T00:37:42.244Z,16.17
2019-02-17T00:40:10.451Z,16.37
2019-02-17T00:42:38.699Z,16.00
2019-02-17T00:45:07.012Z,17.10
2019-02-17T00:47:35.246Z,16.85
2019-02-17T00:50:07.125Z,17.80
2019-02-17T00:52:35.319Z,17.37
2019-02-17T00:55:03.607Z,17.23
2019-02-17T00:57:32.226Z,16.15
2019-02-17T01:00:00.500Z,17.60
2019-02-17T01:02:28.707Z,17.30
2019-02-17T01:04:56.915Z,18.23
2019-02-17T01:07:25.253Z,17.27
2019-02-17T01:09:53.475Z,17.05
2019-02-17T01:12:21.687Z,17.23
2019-02-17T01:14:49.899Z,16.90
2019-02-17T01:17:18.111Z,16.87
2019-02-17T01:19:46.335Z,16.23
2019-02-17T01:22:14.576Z,16.53
2019-02-17T01:24:43.885Z,17.20
2019-02-17T01:27:13.409Z,16.67
2019-02-17T01:29:41.618Z,16.20
2019-02-17T01:32:09.908Z,16.27
2019-02-17T01:34:38.927Z,16.65
2019-02-17T01:37:07.527Z,16.10
2019-02-17T01:39:37.497Z,16.60
2019-02-17T01:42:05.819Z,16.50
2019-02-17T01:44:34.035Z,15.93
2019-02-17T01:47:02.323Z,16.63
2019-02-17T01:49:30.625Z,15.40
2019-02-17T01:51:58.827Z,16.60
2019-02-17T01:54:27.038Z,16.65
2019-02-17T01:56:55.250Z,17.17
2019-02-17T01:59:30.451Z,16.67
2019-02-17T02:01:53.521Z,16.82
2019-02-17T02:04:21.732Z,17.30
2019-02-17T02:06:49.939Z,18.75
2019-02-17T02:09:18.139Z,19.20
2019-02-17T02:11:46.354Z,19.62
2019-02-17T02:14:14.592Z,19.30
2019-02-17T02:16:42.787Z,19.20
2019-02-17T02:19:10.990Z,19.27
2019-02-17T02:21:39.198Z,19.48
2019-02-17T02:24:07.407Z,18.98
2019-02-17T02:26:35.618Z,19.75
2019-02-17T02:29:03.831Z,18.95
2019-02-17T02:31:32.040Z,18.48
2019-02-17T02:34:00.242Z,18.85
2019-02-17T02:36:28.451Z,19.45
2019-02-17T02:38:56.659Z,19.50
2019-02-17T02:41:34.324Z,18.17
2019-02-17T02:43:54.762Z,18.70
2019-02-17T02:46:22.962Z,19.92
2019-02-17T02:48:52.155Z,19.23
2019-02-17T02:51:20.351Z,19.00
2019-02-17T02:53:48.559Z,21.30
2019-02-17T02:56:16.771Z,19.90
2019-02-17T02:58:44.984Z,19.00
2019-02-17T03:01:13.668Z,18.60
2019-02-17T03:03:41.871Z,18.60
2019-02-17T03:06:27.871Z,20.08
2019-02-17T03:08:56.087Z,19.37
2019-02-17T03:11:24.363Z,18.73
2019-02-17T03:13:52.571Z,19.35
2019-02-17T03:16:20.767Z,17.37
2019-02-17T03:18:49.000Z,18.17
2019-02-17T03:21:17.187Z,18.40
2019-02-17T03:23:45.385Z,19.27
2019-02-17T03:26:13.589Z,17.52
2019-02-17T03:28:41.850Z,18.98
2019-02-17T03:31:10.059Z,18.80
2019-02-17T03:33:38.260Z,20.20
2019-02-17T03:36:06.467Z,23.87
2019-02-17T03:38:34.672Z,22.50
2019-02-17T03:41:02.883Z,23.22
2019-02-17T03:43:31.102Z,23.30
2019-02-17T03:45:59.303Z,22.75
2019-02-17T03:48:27.515Z,21.68
2019-02-17T03:50:55.812Z,23.90
2019-02-17T03:53:24.015Z,24.02
2019-02-17T03:55:53.291Z,23.40
2019-02-17T03:58:22.463Z,21.48
2019-02-17T04:00:50.667Z,20.00
2019-02-17T04:03:18.863Z,19.65
2019-02-17T04:05:47.062Z,21.48
2019-02-17T04:08:15.342Z,20.82
2019-02-17T04:10:43.643Z,19.80
2019-02-17T04:13:11.852Z,20.90
2019-02-17T04:15:40.130Z,19.12
2019-02-17T04:18:08.328Z,19.37
2019-02-17T04:20:36.540Z,19.15
2019-02-17T04:23:04.743Z,19.60
2019-02-17T04:25:32.967Z,20.12
2019-02-17T04:28:01.152Z,19.67
2019-02-17T04:30:29.965Z,20.85
2019-02-17T04:32:58.359Z,18.80
2019-02-17T04:35:26.558Z,20.92
2019-02-17T04:37:54.760Z,20.15
2019-02-17T04:40:22.970Z,20.85
2019-02-17T04:42:51.251Z,20.00
2019-02-17T04:45:19.499Z,20.60
2019-02-17T04:47:47.694Z,20.48
2019-02-17T04:50:15.919Z,19.50
2019-02-17T04:52:44.119Z,20.10
2019-02-17T04:55:12.314Z,21.30
2019-02-17T04:57:40.510Z,20.20
2019-02-17T05:00:09.207Z,20.27
2019-02-17T05:02:37.407Z,18.80
2019-02-17T05:05:05.996Z,20.52
2019-02-17T05:07:34.192Z,19.60
2019-02-17T05:10:02.399Z,20.23
2019-02-17T05:12:30.587Z,19.60
2019-02-17T05:14:58.793Z,20.25
2019-02-17T05:17:26.996Z,20.25
2019-02-17T05:19:55.223Z,19.93
2019-02-17T05:22:23.410Z,19.70
2019-02-17T05:24:51.628Z,19.82
2019-02-17T05:27:19.871Z,19.87
2019-02-17T05:29:48.099Z,19.77
2019-02-17T05:32:16.307Z,20.52
2019-02-17T05:34:44.492Z,19.92
2019-02-17T05:37:12.711Z,19.17
2019-02-17T05:39:40.923Z,20.27
2019-02-17T05:42:09.123Z,20.70
2019-02-17T05:44:37.318Z,21.35
2019-02-17T05:47:05.543Z,21.97
2019-02-17T05:49:33.737Z,21.00
2019-02-17T05:52:01.938Z,20.00
2019-02-17T05:54:30.160Z,19.02
2019-02-17T05:56:58.360Z,19.20
2019-02-17T05:59:26.575Z,19.82
2019-02-17T06:01:54.794Z,19.95
2019-02-17T06:04:22.985Z,20.10
2019-02-17T06:06:51.199Z,20.48
2019-02-17T06:09:19.408Z,21.80
2019-02-17T06:11:47.628Z,20.77
2019-02-17T06:14:15.814Z,19.10
2019-02-17T06:16:44.028Z,18.25
2019-02-17T06:19:12.239Z,19.00
2019-02-17T06:21:40.439Z,19.07
2019-02-17T06:24:08.631Z,19.50
2019-02-17T06:26:36.836Z,19.23
2019-02-17T06:29:05.047Z,21.17
2019-02-17T06:31:33.251Z,18.27
2019-02-17T06:34:01.442Z,20.35
2019-02-17T06:36:29.642Z,21.85
2019-02-17T06:38:57.850Z,22.07
2019-02-17T06:41:26.059Z,22.73
2019-02-17T06:43:54.259Z,21.97
2019-02-17T06:46:26.419Z,22.73
2019-02-17T06:48:54.635Z,22.45
2019-02-17T06:51:22.838Z,22.67
2019-02-17T06:53:51.034Z,21.25
2019-02-17T06:56:27.791Z,22.20
2019-02-17T06:58:56.003Z,22.85
2019-02-17T07:01:25.004Z,22.90
2019-02-17T07:03:53.420Z,21.80
2019-02-17T07:06:28.008Z,22.10
2019-02-17T07:08:56.219Z,21.40
2019-02-17T07:11:24.458Z,22.30
2019-02-17T07:13:52.705Z,21.70
2019-02-17T07:16:22.430Z,22.10
2019-02-17T07:18:50.654Z,21.12
2019-02-17T07:21:18.846Z,21.60
2019-02-17T07:23:47.070Z,20.45
2019-02-17T07:26:17.106Z,22.37
2019-02-17T07:28:45.154Z,22.15
2019-02-17T07:31:13.359Z,21.93
2019-02-17T07:33:41.567Z,20.73
2019-02-17T07:36:09.763Z,19.30
2019-02-17T07:38:37.976Z,20.37
2019-02-17T07:41:06.175Z,20.02
2019-02-17T07:43:34.386Z,19.47
2019-02-17T07:46:02.583Z,20.88
2019-02-17T07:48:30.806Z,21.80
2019-02-17T07:50:58.991Z,21.17
2019-02-17T07:53:27.203Z,22.50
2019-02-17T07:55:55.395Z,24.05
2019-02-17T07:58:23.594Z,25.08
2019-02-17T08:00:52.787Z,24.80
2019-02-17T08:03:21.081Z,23.43
2019-02-17T08:05:49.423Z,24.20
2019-02-17T08:08:17.630Z,23.87
2019-02-17T08:10:45.880Z,26.80
2019-02-17T08:13:14.143Z,25.08
2019-02-17T08:15:42.437Z,26.60
2019-02-17T08:18:10.701Z,24.92
2019-02-17T08:20:38.945Z,23.90
2019-02-17T08:23:07.246Z,23.57
2019-02-17T08:25:35.463Z,25.43
2019-02-17T08:28:03.773Z,28.90
2019-02-17T08:30:32.062Z,28.80
2019-02-17T08:33:00.266Z,25.80
2019-02-17T08:35:28.519Z,25.00
2019-02-17T08:37:56.722Z,25.45
2019-02-17T08:40:24.934Z,24.70
2019-02-17T08:42:53.143Z,23.60
2019-02-17T08:45:21.428Z,24.47
2019-02-17T08:47:49.623Z,25.12
2019-02-17T08:50:19.928Z,25.92
2019-02-17T08:52:48.094Z,25.68
2019-02-17T08:55:16.466Z,25.55
2019-02-17T08:57:44.769Z,25.55
2019-02-17T09:00:13.245Z,25.37
2019-02-17T09:02:41.514Z,26.33
2019-02-17T09:05:10.288Z,26.65
2019-02-17T09:07:38.503Z,31.12
2019-02-17T09:10:07.684Z,29.60
2019-02-17T09:12:35.879Z,31.37
2019-02-17T09:15:04.528Z,33.75
2019-02-17T09:17:33.819Z,34.78
2019-02-17T09:20:02.047Z,35.00
2019-02-17T09:22:30.310Z,30.17
2019-02-17T09:24:58.567Z,30.27
2019-02-17T09:27:26.829Z,28.23
2019-02-17T09:29:55.119Z,28.45
2019-02-17T09:32:23.336Z,27.30
2019-02-17T09:34:51.578Z,25.12
2019-02-17T09:37:19.824Z,24.13
2019-02-17T09:39:48.114Z,23.80
2019-02-17T09:42:17.414Z,23.30
2019-02-17T09:44:45.627Z,24.77
2019-02-17T09:47:13.847Z,23.15
2019-02-17T09:49:46.707Z,22.80
2019-02-17T09:52:16.434Z,24.40
2019-02-17T09:54:46.033Z,23.07
2019-02-17T09:57:20.523Z,23.87
2019-02-17T09:59:48.859Z,21.23
2019-02-17T10:02:26.237Z,21.33
2019-02-17T10:04:47.066Z,21.20
2019-02-17T10:07:15.358Z,20.90
2019-02-17T10:09:43.589Z,20.00
2019-02-17T10:12:11.970Z,20.62
2019-02-17T10:14:40.281Z,21.60
2019-02-17T10:17:08.540Z,20.40
2019-02-17T10:19:36.871Z,22.00
2019-02-17T10:22:05.329Z,20.90
2019-02-17T10:24:33.543Z,20.90
2019-02-17T10:27:01.766Z,21.43
2019-02-17T10:29:30.004Z,20.92
2019-02-17T10:31:58.243Z,20.32
2019-02-17T10:34:26.535Z,19.85
2019-02-17T10:36:54.930Z,19.30
2019-02-17T10:39:23.219Z,20.23
2019-02-17T10:41:51.512Z,20.50
2019-02-17T10:44:19.727Z,20.92
2019-02-17T10:48:45.204Z,19.95
2019-02-17T10:51:13.527Z,21.02
2019-02-17T10:53:41.735Z,19.97
2019-02-17T10:56:10.038Z,20.93
2019-02-17T10:58:38.295Z,20.70
2019-02-17T11:01:06.527Z,20.20
2019-02-17T11:03:34.731Z,20.00
2019-02-17T11:06:02.991Z,20.40
2019-02-17T11:08:31.364Z,18.75
2019-02-17T11:10:59.596Z,18.50
2019-02-17T11:13:27.806Z,19.15
2019-02-17T11:15:56.107Z,20.47
2019-02-17T11:18:24.326Z,19.53
2019-02-17T11:20:52.539Z,19.00
2019-02-17T11:23:20.767Z,19.93
2019-02-17T11:25:48.964Z,17.80
2019-02-17T11:28:17.193Z,17.05
2019-02-17T11:30:45.479Z,19.20
2019-02-17T11:33:13.691Z,18.40
2019-02-17T11:35:41.934Z,18.80
2019-02-17T11:38:10.295Z,16.93
2019-02-17T11:40:38.599Z,18.77
2019-02-17T11:43:06.832Z,17.52
2019-02-17T11:45:35.008Z,19.57
2019-02-17T11:48:03.218Z,17.30
2019-02-17T11:50:31.450Z,18.93
2019-02-17T11:52:59.679Z,18.63
2019-02-17T11:55:27.912Z,19.00
2019-02-17T11:57:56.114Z,19.50
2019-02-17T12:00:24.383Z,18.70
2019-02-17T12:02:52.686Z,18.35
2019-02-17T12:05:20.934Z,17.85
2019-02-17T12:07:49.256Z,16.80
2019-02-17T12:10:17.464Z,17.23
2019-02-17T12:12:45.683Z,18.97
2019-02-17T12:15:14.266Z,17.97
2019-02-17T12:17:42.548Z,18.20
2019-02-17T12:20:31.719Z,17.63
2019-02-17T12:23:04.602Z,18.70
2019-02-17T12:25:38.780Z,18.27
2019-02-17T12:28:18.023Z,19.13
2019-02-17T12:30:49.343Z,17.20
2019-02-17T12:33:20.619Z,18.07
2019-02-17T12:35:47.492Z,20.05
2019-02-17T12:38:15.703Z,18.30
2019-02-17T12:40:43.909Z,19.95
2019-02-17T12:43:12.182Z,19.10
2019-02-17T12:45:40.459Z,19.20
2019-02-17T12:48:08.676Z,18.80
2019-02-17T12:50:36.883Z,18.57
2019-02-17T12:53:05.211Z,18.35
2019-02-17T12:55:33.421Z,18.60
2019-02-17T12:58:01.641Z,18.50
2019-02-17T13:00:29.914Z,17.82
2019-02-17T13:02:58.116Z,17.60
2019-02-17T13:05:26.317Z,16.67
2019-02-17T13:07:54.523Z,17.30
2019-02-17T13:10:22.723Z,17.73
2019-02-17T13:12:51.014Z,16.77
2019-02-17T13:15:19.211Z,18.43
2019-02-17T13:17:47.423Z,17.20
2019-02-17T13:20:15.664Z,17.60
2019-02-17T13:22:44.935Z,17.80
2019-02-17T13:25:13.167Z,15.23
2019-02-17T13:27:41.386Z,16.63
2019-02-17T13:30:11.519Z,15.60
2019-02-17T13:32:40.407Z,14.47
2019-02-17T13:35:10.728Z,15.27
2019-02-17T13:37:38.999Z,16.50
2019-02-17T13:40:07.907Z,15.85
2019-02-17T13:42:36.106Z,16.57
2019-02-17T13:45:04.421Z,16.17
2019-02-17T13:47:33.752Z,16.35
2019-02-17T13:50:02.027Z,16.23
2019-02-17T13:52:32.020Z,16.60
2019-02-17T13:55:00.330Z,15.75
2019-02-17T13:57:28.514Z,16.23
2019-02-17T13:59:59.002Z,16.00
2019-02-17T14:02:28.449Z,15.80
2019-02-17T14:04:57.622Z,15.43
2019-02-17T14:07:28.108Z,15.40
2019-02-17T14:09:57.980Z,14.97
2019-02-17T14:12:26.426Z,17.23
2019-02-17T14:14:55.653Z,16.90
2019-02-17T14:17:24.068Z,16.35
2019-02-17T14:19:53.012Z,14.80
2019-02-17T14:22:21.639Z,14.60
2019-02-17T14:24:50.980Z,14.93
2019-02-17T14:27:19.986Z,14.90
2019-02-17T14:29:48.789Z,14.80
2019-02-17T14:32:17.644Z,15.88
2019-02-17T14:34:46.892Z,16.82
2019-02-17T14:37:15.323Z,16.20
2019-02-17T14:39:43.644Z,15.55
2019-02-17T14:42:11.884Z,16.35
2019-02-17T14:44:40.204Z,15.83
2019-02-17T14:47:09.792Z,15.60
2019-02-17T14:49:38.092Z,15.23
2019-02-17T14:52:06.323Z,16.52
2019-02-17T14:54:34.552Z,15.60
2019-02-17T14:57:08.611Z,16.07
2019-02-17T14:59:36.843Z,16.90
2019-02-17T15:02:05.059Z,17.23
2019-02-17T15:04:33.412Z,17.50
2019-02-17T15:07:01.760Z,16.73
2019-02-17T15:09:30.011Z,16.17
2019-02-17T15:11:58.211Z,17.03
2019-02-17T15:14:28.521Z,16.62
2019-02-17T15:16:56.788Z,16.73
2019-02-17T15:19:25.015Z,16.07
2019-02-17T15:21:53.260Z,16.55
2019-02-17T15:24:21.448Z,16.05
2019-02-17T15:26:49.697Z,16.32
2019-02-17T15:29:21.967Z,16.47
2019-02-17T15:31:50.191Z,16.33
2019-02-17T15:34:19.428Z,16.27
2019-02-17T15:36:52.700Z,16.60
2019-02-17T15:39:20.931Z,16.40
2019-02-17T15:41:49.155Z,15.60
2019-02-17T15:44:17.444Z,17.57
2019-02-17T15:46:45.759Z,15.38
2019-02-17T15:49:15.183Z,16.80
2019-02-17T15:51:43.835Z,17.50
2019-02-17T15:54:12.043Z,17.70
2019-02-17T15:56:40.359Z,16.67
2019-02-17T15:59:12.439Z,19.48
2019-02-17T16:01:40.805Z,18.27
2019-02-17T16:04:09.139Z,17.70
2019-02-17T16:06:37.450Z,17.50
2019-02-17T16:09:06.293Z,17.57
2019-02-17T16:11:36.603Z,18.20
2019-02-17T16:14:04.815Z,17.20
2019-02-17T16:16:35.069Z,19.12
2019-02-17T16:19:04.376Z,18.80
2019-02-17T16:21:32.620Z,20.30
2019-02-17T16:24:01.848Z,18.10
2019-02-17T16:26:30.123Z,19.27
2019-02-17T16:28:58.399Z,19.50
2019-02-17T16:31:26.673Z,19.07
2019-02-17T16:33:54.960Z,18.80
2019-02-17T16:36:23.603Z,19.60
2019-02-17T16:38:51.918Z,18.48
2019-02-17T16:41:21.223Z,17.90
2019-02-17T16:43:49.427Z,20.45
2019-02-17T16:46:17.638Z,28.60
2019-02-17T16:48:47.907Z,69.50
2019-02-17T16:51:16.135Z,60.03
2019-02-17T16:53:44.424Z,50.90
2019-02-17T16:56:12.647Z,45.33
2019-02-17T16:58:42.961Z,29.57
2019-02-17T17:01:11.232Z,24.00
2019-02-17T17:03:39.495Z,22.70
2019-02-17T17:06:07.707Z,22.13
2019-02-17T17:08:35.947Z,24.20
2019-02-17T17:11:04.279Z,23.20
2019-02-17T17:13:32.551Z,20.03
2019-02-17T17:16:00.819Z,20.35
2019-02-17T17:18:35.127Z,19.55
2019-02-17T17:21:05.443Z,19.07
2019-02-17T17:23:33.676Z,19.37
2019-02-17T17:26:01.894Z,18.70
2019-02-17T17:28:35.351Z,17.90
2019-02-17T17:31:03.569Z,17.97
2019-02-17T17:33:37.615Z,17.90
2019-02-17T17:36:05.849Z,19.90
2019-02-17T17:38:34.059Z,21.10
2019-02-17T17:41:02.405Z,22.17
2019-02-17T17:43:36.502Z,23.90
2019-02-17T17:46:04.718Z,21.05
2019-02-17T17:48:33.046Z,22.17
2019-02-17T17:51:02.354Z,20.00
2019-02-17T17:53:30.567Z,19.95
2019-02-17T17:55:58.807Z,19.07
2019-02-17T17:58:27.036Z,19.50
2019-02-17T18:00:55.286Z,17.07
2019-02-17T18:03:23.620Z,18.60
2019-02-17T18:05:54.983Z,18.30
2019-02-17T18:08:23.208Z,20.97
2019-02-17T18:10:51.503Z,19.57
2019-02-17T18:13:21.949Z,18.67
2019-02-17T18:15:53.619Z,18.32
2019-02-17T18:18:21.930Z,18.10
2019-02-17T18:20:51.870Z,16.85
2019-02-17T18:23:20.106Z,17.67
2019-02-17T18:25:48.321Z,18.23
2019-02-17T18:28:17.606Z,19.43
2019-02-17T18:30:45.935Z,19.63
2019-02-17T18:33:15.259Z,18.20
2019-02-17T18:35:43.478Z,18.07
2019-02-17T18:38:11.703Z,18.98
2019-02-17T18:40:45.043Z,17.20
2019-02-17T18:43:11.936Z,17.10
2019-02-17T18:45:40.209Z,17.77
2019-02-17T18:48:08.496Z,17.60
2019-02-17T18:50:37.772Z,17.65
2019-02-17T18:53:05.995Z,17.43
2019-02-17T18:55:34.211Z,17.73
2019-02-17T18:58:02.555Z,17.25
2019-02-17T19:00:30.774Z,15.40
2019-02-17T19:03:06.631Z,17.55
2019-02-17T19:05:35.007Z,17.03
2019-02-17T19:08:03.325Z,17.48
2019-02-17T19:10:34.805Z,17.17
2019-02-17T19:13:04.336Z,17.53
2019-02-17T19:15:32.602Z,18.37
2019-02-17T19:18:00.917Z,18.00
2019-02-17T19:20:29.135Z,18.97
2019-02-17T19:22:57.452Z,20.12
2019-02-17T19:25:25.663Z,20.70
2019-02-17T19:27:53.891Z,23.80
2019-02-17T19:30:22.239Z,24.12
2019-02-17T19:32:50.589Z,24.32
2019-02-17T19:35:18.951Z,21.37
2019-02-17T19:37:48.848Z,21.35
2019-02-17T19:40:17.188Z,19.90
2019-02-17T19:42:45.599Z,19.47
2019-02-17T19:45:13.807Z,18.77
2019-02-17T19:47:43.143Z,21.42
2019-02-17T19:50:11.480Z,22.57
2019-02-17T19:52:39.692Z,20.50
2019-02-17T19:55:08.135Z,19.20
2019-02-17T19:57:36.451Z,18.42
2019-02-17T20:00:05.171Z,17.57
2019-02-17T20:02:46.689Z,17.55
2019-02-17T20:05:17.199Z,16.07
2019-02-17T20:07:45.538Z,16.25
2019-02-17T20:10:14.131Z,17.20
2019-02-17T20:12:42.439Z,15.72
2019-02-17T20:15:10.703Z,16.15
2019-02-17T20:17:38.943Z,17.77
2019-02-17T20:20:07.191Z,17.87
2019-02-17T20:22:35.514Z,16.63
2019-02-17T20:25:04.094Z,17.03
2019-02-17T20:27:32.540Z,17.30
2019-02-17T20:30:00.780Z,16.55
2019-02-17T20:32:29.031Z,16.97
2019-02-17T20:34:58.520Z,16.80
2019-02-17T20:37:29.883Z,15.72
2019-02-17T20:39:58.088Z,17.17
2019-02-17T20:42:26.394Z,17.17
2019-02-17T20:44:54.641Z,15.65
2019-02-17T20:47:22.971Z,16.30
2019-02-17T20:49:51.292Z,16.62
2019-02-17T20:52:19.515Z,16.27
2019-02-17T20:54:47.922Z,15.13
2019-02-17T20:57:16.399Z,15.90
2019-02-17T20:59:44.705Z,15.50
2019-02-17T21:02:16.096Z,15.90
2019-02-17T21:04:44.408Z,15.13
2019-02-17T21:07:12.822Z,15.40
2019-02-17T21:09:41.029Z,15.50
2019-02-17T21:12:09.395Z,16.30
2019-02-17T21:14:37.741Z,17.13
2019-02-17T21:17:29.943Z,16.87
2019-02-17T21:20:00.811Z,15.63
2019-02-17T21:22:29.132Z,14.95
2019-02-17T21:24:57.484Z,14.30
2019-02-17T21:27:25.696Z,14.23
2019-02-17T21:29:53.935Z,13.77
2019-02-17T21:32:22.403Z,14.65
2019-02-17T21:34:50.691Z,14.10
2019-02-17T21:37:18.955Z,14.00
2019-02-17T21:39:47.246Z,14.70
2019-02-17T21:42:15.487Z,14.37
2019-02-17T21:44:43.751Z,13.60
2019-02-17T21:47:11.955Z,13.50
2019-02-17T21:49:40.250Z,13.68
2019-02-17T21:52:08.633Z,14.05
2019-02-17T21:54:36.897Z,13.17
2019-02-17T21:57:05.191Z,13.67
2019-02-17T21:59:33.510Z,12.90
2019-02-17T22:02:01.820Z,12.55
2019-02-17T22:04:31.131Z,13.73
2019-02-17T22:06:59.399Z,13.20
2019-02-17T22:09:27.870Z,12.80
2019-02-17T22:11:56.179Z,13.73
2019-02-17T22:14:24.418Z,12.98
2019-02-17T22:16:53.734Z,13.10
2019-02-17T22:19:22.035Z,14.63
2019-02-17T22:21:50.290Z,13.53
2019-02-17T22:24:18.522Z,13.20
2019-02-17T22:26:46.879Z,13.00
2019-02-17T22:29:15.127Z,12.50
2019-02-17T22:31:43.695Z,12.70
2019-02-17T22:34:13.041Z,12.20
2019-02-17T22:36:43.995Z,12.30
2019-02-17T22:39:12.427Z,12.47
2019-02-17T22:41:40.636Z,12.37
2019-02-17T22:44:09.107Z,13.35
2019-02-17T22:46:37.337Z,13.10
2019-02-17T22:49:05.764Z,12.90
2019-02-17T22:51:34.107Z,13.68
2019-02-17T22:54:02.399Z,12.33
2019-02-17T22:56:30.591Z,13.50
2019-02-17T22:58:58.815Z,13.00
2019-02-17T23:01:30.684Z,13.43
2019-02-17T23:03:58.983Z,12.47
2019-02-17T23:06:27.226Z,12.98
2019-02-17T23:08:55.510Z,12.82
2019-02-17T23:11:23.713Z,12.70
2019-02-17T23:13:51.906Z,12.93
2019-02-17T23:16:20.196Z,12.75
2019-02-17T23:18:48.416Z,12.95
2019-02-17T23:21:16.635Z,13.00
2019-02-17T23:23:44.852Z,12.43
2019-02-17T23:26:13.057Z,13.03
2019-02-17T23:28:41.265Z,12.68
2019-02-17T23:31:09.541Z,12.07
2019-02-17T23:33:37.760Z,12.50
2019-02-17T23:36:05.972Z,11.70
2019-02-17T23:38:34.171Z,11.50
2019-02-17T23:41:02.376Z,12.00
2019-02-17T23:43:30.578Z,11.28
2019-02-17T23:45:58.813Z,11.38
2019-02-17T23:48:27.002Z,11.08
2019-02-17T23:50:55.219Z,11.73
2019-02-17T23:53:23.431Z,11.33
2019-02-17T23:55:51.663Z,11.43
2019-02-17T23:58:19.880Z,11.25
